Saturday, January 20, 2018, 3:02 PM GMT
Back to Local

CWST, La Pocatiere

Location: , , Canada Lat: 47.35
Local Time: 3:02 PM GMT (15:02 GMT) Lon: -70.033
Time Zone: GMT Elev: 101 ft

Show me the last for .
Show Coded

Time T Td Feel RH Dir Speed Gust Alt SLP Vis Weather Sky Remarks
2018-01-20 14:00 32 28 16 86 220° 35 41 - 29.31 0 Peak wind: 46 mph (40 kts) from 230° at 35 min
2018-01-20 13:00 33 28 17 82 230° 35 41 - 29.28 0 Peak wind: 42 mph (37 kts) from 230° at 32 min
2018-01-20 12:00 30 28 15 90 230° 25 32 - 29.27 0 Peak wind: 39 mph (34 kts) from 230° at 44 min
2018-01-20 11:00 32 28 16 84 220° 29 39 - 29.28 0 Peak wind: 44 mph (39 kts) from 200° at 24 min
2018-01-20 10:00 30 29 14 93 200° 25 35 - 29.29 0 Peak wind: 36 mph (32 kts) from 220° at 32 min
Pressure falling rapidly
2018-01-20 09:00 31 25 17 77 210° 17 28 - 29.37 0 Peak wind: 32 mph (28 kts) from 210° at 14 min
Pressure falling rapidly
2018-01-20 08:00 31 24 17 72 210° 21 30 - 29.46 0 Peak wind: 34 mph (30 kts) from 210° at 31 min
2018-01-20 07:00 31 24 17 75 200° 18 25 - 29.49 0 Peak wind: 32 mph (28 kts) from 200° at 34 min
2018-01-20 06:00 30 26 15 84 210° 17 29 - 29.51 0 Peak wind: 31 mph (27 kts) from 200° at 20 min
2018-01-20 05:00 29 26 15 88 210° 16 24 - 29.57 0 Peak wind: 26 mph (23 kts) from 210° at 38 min
2018-01-20 04:00 28 25 14 87 210° 18 25 - 29.62 0 Peak wind: 29 mph (26 kts) from 200° at 45 min
2018-01-20 03:00 28 24 15 86 210° 17 - - 29.65 0 Peak wind: 27 mph (24 kts) from 220° at 20 min
2018-01-20 02:00 27 23 13 84 210° 17 23 - 29.68 0 Peak wind: 24 mph (21 kts) from 210° at 38 min
2018-01-20 01:00 27 24 14 86 220° 17 - - 29.70 0 Peak wind: 21 mph (19 kts) from 220° at 13 min
2018-01-20 00:00 27 23 15 87 220° 14 - - 29.74 0 Peak wind: 21 mph (19 kts) from 230° at 27 min
2018-01-19 23:00 26 22 15 83 210° 13 - - 29.72 0 None
2018-01-19 22:00 26 22 12 84 200° 14 20 - 29.75 0 Peak wind: 20 mph (18 kts) from 220° at 25 min
2018-01-19 21:00 28 22 14 78 220° 15 21 - 29.76 0 Peak wind: 20 mph (18 kts) from 210° at 54 min
2018-01-19 20:00 22 18 - 83 190° 2 - - 29.78 0 None
2018-01-19 19:00 20 16 - 84 50° 2 - - 29.78 0 None
2018-01-19 18:00 19 15 - 83 50° 1 - - 29.81 0 None
2018-01-19 17:00 19 15 14 83 60° 3 - - 29.82 0 None
2018-01-19 16:00 19 14 - 79 100° 1 - - 29.84 0 None

Support USWX by starting your Amazon purchase here.